sensor_id;sensor_type;location;lat;lon;timestamp;P1;durP1;ratioP1;P2;durP2;ratioP2
16624;SDS011;8426;48.496;9.098;2024-02-14T00:02:43;8.37;;;4.33;;
16624;SDS011;8426;48.496;9.098;2024-02-14T00:07:49;10.53;;;4.87;;
16624;SDS011;8426;48.496;9.098;2024-02-14T00:12:53;8.70;;;4.53;;
16624;SDS011;8426;48.496;9.098;2024-02-14T00:17:58;11.00;;;4.70;;
16624;SDS011;8426;48.496;9.098;2024-02-14T00:23:13;9.50;;;4.43;;
16624;SDS011;8426;48.496;9.098;2024-02-14T00:28:17;11.77;;;4.10;;
16624;SDS011;8426;48.496;9.098;2024-02-14T00:33:20;10.17;;;4.50;;
16624;SDS011;8426;48.496;9.098;2024-02-14T00:38:26;10.10;;;4.43;;
16624;SDS011;8426;48.496;9.098;2024-02-14T00:43:42;9.33;;;3.90;;
16624;SDS011;8426;48.496;9.098;2024-02-14T00:48:45;9.30;;;4.53;;
16624;SDS011;8426;48.496;9.098;2024-02-14T00:53:51;11.50;;;4.40;;
16624;SDS011;8426;48.496;9.098;2024-02-14T00:58:55;11.63;;;4.37;;
16624;SDS011;8426;48.496;9.098;2024-02-14T01:03:59;10.73;;;5.13;;
16624;SDS011;8426;48.496;9.098;2024-02-14T01:14:49;12.30;;;3.87;;
16624;SDS011;8426;48.496;9.098;2024-02-14T01:19:54;10.37;;;3.90;;
16624;SDS011;8426;48.496;9.098;2024-02-14T01:25:01;7.27;;;3.53;;
16624;SDS011;8426;48.496;9.098;2024-02-14T01:30:20;5.27;;;3.07;;
16624;SDS011;8426;48.496;9.098;2024-02-14T01:35:26;9.57;;;3.73;;
16624;SDS011;8426;48.496;9.098;2024-02-14T01:40:29;8.97;;;3.30;;
16624;SDS011;8426;48.496;9.098;2024-02-14T01:45:35;8.40;;;3.63;;
16624;SDS011;8426;48.496;9.098;2024-02-14T01:50:40;6.90;;;3.20;;
16624;SDS011;8426;48.496;9.098;2024-02-14T01:55:44;7.65;;;3.58;;
16624;SDS011;8426;48.496;9.098;2024-02-14T02:00:54;7.93;;;4.30;;
16624;SDS011;8426;48.496;9.098;2024-02-14T02:06:01;6.27;;;3.30;;
16624;SDS011;8426;48.496;9.098;2024-02-14T02:11:05;10.05;;;4.22;;
16624;SDS011;8426;48.496;9.098;2024-02-14T02:16:10;7.33;;;4.33;;
16624;SDS011;8426;48.496;9.098;2024-02-14T02:21:14;9.33;;;4.40;;
16624;SDS011;8426;48.496;9.098;2024-02-14T02:26:25;10.33;;;4.00;;
16624;SDS011;8426;48.496;9.098;2024-02-14T02:32:06;11.50;;;4.13;;
16624;SDS011;8426;48.496;9.098;2024-02-14T02:37:11;9.63;;;4.00;;
16624;SDS011;8426;48.496;9.098;2024-02-14T02:47:55;13.37;;;3.90;;
16624;SDS011;8426;48.496;9.098;2024-02-14T02:52:59;8.87;;;3.37;;
16624;SDS011;8426;48.496;9.098;2024-02-14T03:04:00;6.47;;;3.43;;
16624;SDS011;8426;48.496;9.098;2024-02-14T03:09:04;8.43;;;3.57;;
16624;SDS011;8426;48.496;9.098;2024-02-14T03:14:28;9.67;;;3.50;;
16624;SDS011;8426;48.496;9.098;2024-02-14T03:19:43;5.57;;;3.03;;
16624;SDS011;8426;48.496;9.098;2024-02-14T03:24:52;7.27;;;3.83;;
16624;SDS011;8426;48.496;9.098;2024-02-14T03:29:58;6.30;;;3.33;;
16624;SDS011;8426;48.496;9.098;2024-02-14T03:35:09;8.43;;;3.47;;
16624;SDS011;8426;48.496;9.098;2024-02-14T03:40:16;7.33;;;3.00;;
16624;SDS011;8426;48.496;9.098;2024-02-14T03:45:19;5.73;;;3.60;;
16624;SDS011;8426;48.496;9.098;2024-02-14T03:50:25;5.37;;;3.17;;
16624;SDS011;8426;48.496;9.098;2024-02-14T03:55:29;9.33;;;4.20;;
16624;SDS011;8426;48.496;9.098;2024-02-14T04:00:33;5.67;;;3.27;;
16624;SDS011;8426;48.496;9.098;2024-02-14T04:05:39;6.10;;;3.10;;
16624;SDS011;8426;48.496;9.098;2024-02-14T04:10:43;5.90;;;3.33;;
16624;SDS011;8426;48.496;9.098;2024-02-14T04:15:47;12.27;;;3.70;;
16624;SDS011;8426;48.496;9.098;2024-02-14T04:20:59;6.03;;;3.33;;
16624;SDS011;8426;48.496;9.098;2024-02-14T04:26:08;11.33;;;4.37;;
16624;SDS011;8426;48.496;9.098;2024-02-14T04:31:12;13.27;;;5.00;;
16624;SDS011;8426;48.496;9.098;2024-02-14T04:36:17;8.67;;;4.30;;
16624;SDS011;8426;48.496;9.098;2024-02-14T04:41:21;7.30;;;4.13;;
16624;SDS011;8426;48.496;9.098;2024-02-14T04:46:29;13.20;;;4.37;;
16624;SDS011;8426;48.496;9.098;2024-02-14T04:51:38;8.60;;;4.17;;
16624;SDS011;8426;48.496;9.098;2024-02-14T04:56:43;7.67;;;3.80;;
16624;SDS011;8426;48.496;9.098;2024-02-14T05:01:50;4.97;;;3.00;;
16624;SDS011;8426;48.496;9.098;2024-02-14T05:06:56;6.00;;;3.07;;
16624;SDS011;8426;48.496;9.098;2024-02-14T05:12:00;5.43;;;2.70;;
16624;SDS011;8426;48.496;9.098;2024-02-14T05:17:07;6.03;;;3.10;;
16624;SDS011;8426;48.496;9.098;2024-02-14T05:22:13;12.67;;;3.57;;
16624;SDS011;8426;48.496;9.098;2024-02-14T05:27:25;8.00;;;2.83;;
16624;SDS011;8426;48.496;9.098;2024-02-14T05:32:29;14.20;;;5.53;;
16624;SDS011;8426;48.496;9.098;2024-02-14T05:37:53;15.90;;;5.83;;
16624;SDS011;8426;48.496;9.098;2024-02-14T05:42:57;14.17;;;5.90;;
16624;SDS011;8426;48.496;9.098;2024-02-14T05:48:10;12.97;;;4.63;;
16624;SDS011;8426;48.496;9.098;2024-02-14T05:53:16;12.67;;;5.43;;
16624;SDS011;8426;48.496;9.098;2024-02-14T05:58:20;18.80;;;9.03;;
16624;SDS011;8426;48.496;9.098;2024-02-14T06:03:26;10.70;;;5.10;;
16624;SDS011;8426;48.496;9.098;2024-02-14T06:08:32;6.53;;;3.40;;
16624;SDS011;8426;48.496;9.098;2024-02-14T06:13:35;7.47;;;3.60;;
16624;SDS011;8426;48.496;9.098;2024-02-14T06:18:39;6.50;;;2.90;;
16624;SDS011;8426;48.496;9.098;2024-02-14T06:23:45;5.93;;;3.20;;
16624;SDS011;8426;48.496;9.098;2024-02-14T06:28:49;7.97;;;3.45;;
16624;SDS011;8426;48.496;9.098;2024-02-14T06:33:56;6.85;;;2.38;;
16624;SDS011;8426;48.496;9.098;2024-02-14T06:39:01;6.60;;;2.17;;
16624;SDS011;8426;48.496;9.098;2024-02-14T06:49:39;7.47;;;2.57;;
16624;SDS011;8426;48.496;9.098;2024-02-14T06:54:59;6.80;;;2.35;;
16624;SDS011;8426;48.496;9.098;2024-02-14T07:00:06;10.25;;;6.22;;
16624;SDS011;8426;48.496;9.098;2024-02-14T07:05:11;4.93;;;2.65;;
16624;SDS011;8426;48.496;9.098;2024-02-14T07:10:18;4.15;;;2.33;;
16624;SDS011;8426;48.496;9.098;2024-02-14T07:15:22;8.48;;;2.42;;
16624;SDS011;8426;48.496;9.098;2024-02-14T07:20:30;5.95;;;2.70;;
16624;SDS011;8426;48.496;9.098;2024-02-14T07:25:35;7.45;;;2.15;;
16624;SDS011;8426;48.496;9.098;2024-02-14T07:30:38;4.68;;;1.70;;
16624;SDS011;8426;48.496;9.098;2024-02-14T07:35:42;5.18;;;1.98;;
16624;SDS011;8426;48.496;9.098;2024-02-14T07:40:56;1.90;;;1.38;;
16624;SDS011;8426;48.496;9.098;2024-02-14T07:51:59;5.97;;;1.40;;
16624;SDS011;8426;48.496;9.098;2024-02-14T07:57:10;7.05;;;1.88;;
16624;SDS011;8426;48.496;9.098;2024-02-14T08:02:15;5.72;;;2.05;;
16624;SDS011;8426;48.496;9.098;2024-02-14T08:07:29;3.40;;;2.05;;
16624;SDS011;8426;48.496;9.098;2024-02-14T08:12:34;6.03;;;2.40;;
16624;SDS011;8426;48.496;9.098;2024-02-14T08:17:53;6.10;;;2.17;;
16624;SDS011;8426;48.496;9.098;2024-02-14T08:23:19;5.63;;;2.15;;
16624;SDS011;8426;48.496;9.098;2024-02-14T08:28:58;6.40;;;1.98;;
16624;SDS011;8426;48.496;9.098;2024-02-14T08:34:02;3.85;;;1.55;;
16624;SDS011;8426;48.496;9.098;2024-02-14T08:39:06;4.47;;;1.35;;
16624;SDS011;8426;48.496;9.098;2024-02-14T08:44:14;5.57;;;1.98;;
16624;SDS011;8426;48.496;9.098;2024-02-14T08:49:19;4.70;;;1.63;;
16624;SDS011;8426;48.496;9.098;2024-02-14T08:54:22;5.30;;;1.90;;
16624;SDS011;8426;48.496;9.098;2024-02-14T08:59:36;6.45;;;1.50;;
16624;SDS011;8426;48.496;9.098;2024-02-14T09:04:40;2.80;;;1.13;;
16624;SDS011;8426;48.496;9.098;2024-02-14T09:09:47;6.60;;;1.38;;
16624;SDS011;8426;48.496;9.098;2024-02-14T09:14:52;3.60;;;1.23;;
16624;SDS011;8426;48.496;9.098;2024-02-14T09:19:56;3.63;;;1.40;;
16624;SDS011;8426;48.496;9.098;2024-02-14T09:25:01;3.80;;;1.13;;
16624;SDS011;8426;48.496;9.098;2024-02-14T09:35:40;2.63;;;1.38;;
16624;SDS011;8426;48.496;9.098;2024-02-14T09:41:03;5.15;;;1.50;;
16624;SDS011;8426;48.496;9.098;2024-02-14T09:46:23;1.58;;;0.93;;
16624;SDS011;8426;48.496;9.098;2024-02-14T09:51:33;3.05;;;0.90;;
16624;SDS011;8426;48.496;9.098;2024-02-14T09:56:37;2.97;;;1.10;;
16624;SDS011;8426;48.496;9.098;2024-02-14T10:01:59;1.48;;;0.80;;
16624;SDS011;8426;48.496;9.098;2024-02-14T10:07:04;1.85;;;0.90;;
16624;SDS011;8426;48.496;9.098;2024-02-14T10:12:08;4.13;;;1.08;;
16624;SDS011;8426;48.496;9.098;2024-02-14T10:17:20;1.70;;;0.90;;
16624;SDS011;8426;48.496;9.098;2024-02-14T10:22:24;1.83;;;0.80;;
16624;SDS011;8426;48.496;9.098;2024-02-14T10:27:29;3.63;;;1.00;;
16624;SDS011;8426;48.496;9.098;2024-02-14T10:32:36;1.17;;;0.60;;
16624;SDS011;8426;48.496;9.098;2024-02-14T10:43:11;0.77;;;0.55;;
16624;SDS011;8426;48.496;9.098;2024-02-14T10:48:33;1.05;;;0.60;;
16624;SDS011;8426;48.496;9.098;2024-02-14T10:53:41;1.10;;;0.50;;
16624;SDS011;8426;48.496;9.098;2024-02-14T10:58:48;2.40;;;0.70;;
16624;SDS011;8426;48.496;9.098;2024-02-14T11:03:55;2.05;;;0.40;;
16624;SDS011;8426;48.496;9.098;2024-02-14T11:09:01;0.52;;;0.30;;
16624;SDS011;8426;48.496;9.098;2024-02-14T11:14:14;3.67;;;0.30;;
16624;SDS011;8426;48.496;9.098;2024-02-14T11:19:40;0.50;;;0.30;;
16624;SDS011;8426;48.496;9.098;2024-02-14T11:24:56;0.93;;;0.43;;
16624;SDS011;8426;48.496;9.098;2024-02-14T11:30:05;2.28;;;0.28;;
16624;SDS011;8426;48.496;9.098;2024-02-14T11:35:42;1.65;;;0.52;;
16624;SDS011;8426;48.496;9.098;2024-02-14T11:40:47;1.08;;;0.45;;
16624;SDS011;8426;48.496;9.098;2024-02-14T11:45:52;1.15;;;0.40;;
16624;SDS011;8426;48.496;9.098;2024-02-14T11:50:57;0.57;;;0.40;;
16624;SDS011;8426;48.496;9.098;2024-02-14T11:56:01;1.08;;;0.40;;
16624;SDS011;8426;48.496;9.098;2024-02-14T12:01:05;3.63;;;0.60;;
16624;SDS011;8426;48.496;9.098;2024-02-14T12:06:12;1.00;;;0.35;;
16624;SDS011;8426;48.496;9.098;2024-02-14T12:16:56;2.15;;;0.55;;
16624;SDS011;8426;48.496;9.098;2024-02-14T12:22:44;0.30;;;0.20;;
16624;SDS011;8426;48.496;9.098;2024-02-14T12:27:53;0.77;;;0.30;;
16624;SDS011;8426;48.496;9.098;2024-02-14T12:32:59;0.77;;;0.60;;
16624;SDS011;8426;48.496;9.098;2024-02-14T12:43:55;0.70;;;0.30;;
16624;SDS011;8426;48.496;9.098;2024-02-14T12:48:59;0.85;;;0.30;;
16624;SDS011;8426;48.496;9.098;2024-02-14T12:54:04;0.50;;;0.30;;
16624;SDS011;8426;48.496;9.098;2024-02-14T12:59:09;1.15;;;0.20;;
16624;SDS011;8426;48.496;9.098;2024-02-14T13:04:23;0.20;;;0.20;;
16624;SDS011;8426;48.496;9.098;2024-02-14T13:09:52;0.40;;;0.30;;
16624;SDS011;8426;48.496;9.098;2024-02-14T13:14:56;0.88;;;0.20;;
16624;SDS011;8426;48.496;9.098;2024-02-14T13:20:00;0.73;;;0.20;;
16624;SDS011;8426;48.496;9.098;2024-02-14T13:25:07;0.68;;;0.30;;
16624;SDS011;8426;48.496;9.098;2024-02-14T13:30:11;1.02;;;0.28;;
16624;SDS011;8426;48.496;9.098;2024-02-14T13:35:15;0.20;;;0.13;;
16624;SDS011;8426;48.496;9.098;2024-02-14T13:40:20;0.55;;;0.30;;
16624;SDS011;8426;48.496;9.098;2024-02-14T13:45:24;0.43;;;0.43;;
16624;SDS011;8426;48.496;9.098;2024-02-14T13:50:28;0.38;;;0.20;;
16624;SDS011;8426;48.496;9.098;2024-02-14T13:55:33;0.22;;;0.20;;
16624;SDS011;8426;48.496;9.098;2024-02-14T14:00:37;0.30;;;0.20;;
16624;SDS011;8426;48.496;9.098;2024-02-14T14:05:41;0.55;;;0.25;;
16624;SDS011;8426;48.496;9.098;2024-02-14T14:10:46;0.25;;;0.20;;
16624;SDS011;8426;48.496;9.098;2024-02-14T14:15:50;1.42;;;0.40;;
16624;SDS011;8426;48.496;9.098;2024-02-14T14:20:54;0.20;;;0.20;;
16624;SDS011;8426;48.496;9.098;2024-02-14T14:25:59;0.30;;;0.30;;
16624;SDS011;8426;48.496;9.098;2024-02-14T14:31:05;0.70;;;0.30;;
16624;SDS011;8426;48.496;9.098;2024-02-14T14:36:13;0.60;;;0.30;;
16624;SDS011;8426;48.496;9.098;2024-02-14T14:41:19;0.25;;;0.20;;
16624;SDS011;8426;48.496;9.098;2024-02-14T14:46:23;0.35;;;0.30;;
16624;SDS011;8426;48.496;9.098;2024-02-14T14:51:36;3.35;;;0.35;;
16624;SDS011;8426;48.496;9.098;2024-02-14T14:56:42;1.30;;;0.38;;
16624;SDS011;8426;48.496;9.098;2024-02-14T15:01:47;1.17;;;0.50;;
16624;SDS011;8426;48.496;9.098;2024-02-14T15:06:52;0.80;;;0.20;;
16624;SDS011;8426;48.496;9.098;2024-02-14T15:11:59;0.50;;;0.30;;
16624;SDS011;8426;48.496;9.098;2024-02-14T15:17:05;1.48;;;0.32;;
16624;SDS011;8426;48.496;9.098;2024-02-14T15:32:58;2.28;;;0.38;;
16624;SDS011;8426;48.496;9.098;2024-02-14T15:38:21;0.43;;;0.32;;
16624;SDS011;8426;48.496;9.098;2024-02-14T15:43:25;0.85;;;0.30;;
16624;SDS011;8426;48.496;9.098;2024-02-14T15:48:33;1.30;;;0.70;;
16624;SDS011;8426;48.496;9.098;2024-02-14T15:53:36;0.52;;;0.32;;
16624;SDS011;8426;48.496;9.098;2024-02-14T15:58:42;3.72;;;1.42;;
16624;SDS011;8426;48.496;9.098;2024-02-14T16:03:47;1.33;;;0.80;;
16624;SDS011;8426;48.496;9.098;2024-02-14T16:08:51;0.82;;;0.40;;
16624;SDS011;8426;48.496;9.098;2024-02-14T16:13:56;0.95;;;0.43;;
16624;SDS011;8426;48.496;9.098;2024-02-14T16:19:01;2.10;;;0.57;;
16624;SDS011;8426;48.496;9.098;2024-02-14T16:24:08;1.52;;;0.40;;
16624;SDS011;8426;48.496;9.098;2024-02-14T16:29:42;1.20;;;0.40;;
16624;SDS011;8426;48.496;9.098;2024-02-14T16:34:51;0.93;;;0.38;;
16624;SDS011;8426;48.496;9.098;2024-02-14T16:39:55;1.77;;;0.50;;
16624;SDS011;8426;48.496;9.098;2024-02-14T16:44:59;0.88;;;0.52;;
16624;SDS011;8426;48.496;9.098;2024-02-14T16:55:58;3.22;;;0.57;;
16624;SDS011;8426;48.496;9.098;2024-02-14T17:01:50;1.02;;;0.55;;
16624;SDS011;8426;48.496;9.098;2024-02-14T17:06:56;1.58;;;0.60;;
16624;SDS011;8426;48.496;9.098;2024-02-14T17:12:00;0.75;;;0.47;;
16624;SDS011;8426;48.496;9.098;2024-02-14T17:17:04;0.82;;;0.50;;
16624;SDS011;8426;48.496;9.098;2024-02-14T17:22:10;2.05;;;0.60;;
16624;SDS011;8426;48.496;9.098;2024-02-14T17:27:25;0.60;;;0.50;;
16624;SDS011;8426;48.496;9.098;2024-02-14T17:32:30;1.02;;;0.40;;
16624;SDS011;8426;48.496;9.098;2024-02-14T17:37:42;1.33;;;0.43;;
16624;SDS011;8426;48.496;9.098;2024-02-14T17:42:46;0.90;;;0.50;;
16624;SDS011;8426;48.496;9.098;2024-02-14T17:47:51;0.65;;;0.50;;
16624;SDS011;8426;48.496;9.098;2024-02-14T17:52:57;0.50;;;0.40;;
16624;SDS011;8426;48.496;9.098;2024-02-14T17:58:10;1.00;;;0.50;;
16624;SDS011;8426;48.496;9.098;2024-02-14T18:03:14;0.60;;;0.40;;
16624;SDS011;8426;48.496;9.098;2024-02-14T18:14:57;0.65;;;0.40;;
16624;SDS011;8426;48.496;9.098;2024-02-14T18:20:14;0.95;;;0.50;;
16624;SDS011;8426;48.496;9.098;2024-02-14T18:25:20;1.13;;;0.50;;
16624;SDS011;8426;48.496;9.098;2024-02-14T18:30:25;1.63;;;0.50;;
16624;SDS011;8426;48.496;9.098;2024-02-14T18:35:31;1.98;;;0.60;;
16624;SDS011;8426;48.496;9.098;2024-02-14T18:40:39;2.00;;;0.57;;
16624;SDS011;8426;48.496;9.098;2024-02-14T18:45:58;1.05;;;0.55;;
16624;SDS011;8426;48.496;9.098;2024-02-14T18:51:17;1.38;;;0.50;;
16624;SDS011;8426;48.496;9.098;2024-02-14T18:56:21;1.17;;;0.68;;
16624;SDS011;8426;48.496;9.098;2024-02-14T19:01:26;1.13;;;0.80;;
16624;SDS011;8426;48.496;9.098;2024-02-14T19:06:30;1.42;;;0.88;;
16624;SDS011;8426;48.496;9.098;2024-02-14T19:11:38;1.00;;;0.57;;
16624;SDS011;8426;48.496;9.098;2024-02-14T19:16:44;1.02;;;0.73;;
16624;SDS011;8426;48.496;9.098;2024-02-14T19:21:48;2.03;;;0.70;;
16624;SDS011;8426;48.496;9.098;2024-02-14T19:26:55;1.13;;;0.85;;
16624;SDS011;8426;48.496;9.098;2024-02-14T19:37:20;1.42;;;0.70;;
16624;SDS011;8426;48.496;9.098;2024-02-14T19:42:24;1.55;;;0.93;;
16624;SDS011;8426;48.496;9.098;2024-02-14T19:47:29;0.93;;;0.60;;
16624;SDS011;8426;48.496;9.098;2024-02-14T19:52:34;1.23;;;0.80;;
16624;SDS011;8426;48.496;9.098;2024-02-14T19:57:39;0.80;;;0.63;;
16624;SDS011;8426;48.496;9.098;2024-02-14T20:02:45;1.15;;;0.55;;
16624;SDS011;8426;48.496;9.098;2024-02-14T20:07:49;0.75;;;0.60;;
16624;SDS011;8426;48.496;9.098;2024-02-14T20:12:54;0.85;;;0.50;;
16624;SDS011;8426;48.496;9.098;2024-02-14T20:18:05;1.17;;;0.70;;
16624;SDS011;8426;48.496;9.098;2024-02-14T20:23:11;1.02;;;0.60;;
16624;SDS011;8426;48.496;9.098;2024-02-14T20:28:14;1.63;;;0.90;;
16624;SDS011;8426;48.496;9.098;2024-02-14T20:33:20;0.80;;;0.50;;
16624;SDS011;8426;48.496;9.098;2024-02-14T20:43:59;2.05;;;0.60;;
16624;SDS011;8426;48.496;9.098;2024-02-14T20:54:31;1.35;;;0.50;;
16624;SDS011;8426;48.496;9.098;2024-02-14T20:59:54;0.95;;;0.65;;
16624;SDS011;8426;48.496;9.098;2024-02-14T21:05:02;1.20;;;0.45;;
16624;SDS011;8426;48.496;9.098;2024-02-14T21:10:19;0.60;;;0.50;;
16624;SDS011;8426;48.496;9.098;2024-02-14T21:15:37;2.08;;;0.80;;
16624;SDS011;8426;48.496;9.098;2024-02-14T21:21:02;2.05;;;0.75;;
16624;SDS011;8426;48.496;9.098;2024-02-14T21:26:18;2.65;;;0.60;;
16624;SDS011;8426;48.496;9.098;2024-02-14T21:31:37;0.55;;;0.50;;
16624;SDS011;8426;48.496;9.098;2024-02-14T21:36:44;1.25;;;0.70;;
16624;SDS011;8426;48.496;9.098;2024-02-14T21:41:58;0.70;;;0.50;;
16624;SDS011;8426;48.496;9.098;2024-02-14T21:47:19;0.50;;;0.50;;
16624;SDS011;8426;48.496;9.098;2024-02-14T21:52:26;1.25;;;0.55;;
16624;SDS011;8426;48.496;9.098;2024-02-14T21:57:46;1.00;;;0.60;;
16624;SDS011;8426;48.496;9.098;2024-02-14T22:08:05;1.55;;;0.60;;
16624;SDS011;8426;48.496;9.098;2024-02-14T22:13:08;2.13;;;0.70;;
16624;SDS011;8426;48.496;9.098;2024-02-14T22:18:12;2.03;;;1.20;;
16624;SDS011;8426;48.496;9.098;2024-02-14T22:23:22;2.20;;;1.35;;
16624;SDS011;8426;48.496;9.098;2024-02-14T22:28:33;2.67;;;1.48;;
16624;SDS011;8426;48.496;9.098;2024-02-14T22:33:57;1.83;;;1.20;;
16624;SDS011;8426;48.496;9.098;2024-02-14T22:39:04;6.22;;;1.15;;
16624;SDS011;8426;48.496;9.098;2024-02-14T22:44:11;1.30;;;0.85;;
16624;SDS011;8426;48.496;9.098;2024-02-14T22:49:24;2.88;;;1.13;;
16624;SDS011;8426;48.496;9.098;2024-02-14T22:54:48;2.35;;;1.30;;
16624;SDS011;8426;48.496;9.098;2024-02-14T22:59:52;3.20;;;1.33;;
16624;SDS011;8426;48.496;9.098;2024-02-14T23:05:00;2.53;;;1.42;;
16624;SDS011;8426;48.496;9.098;2024-02-14T23:10:06;6.85;;;3.95;;
16624;SDS011;8426;48.496;9.098;2024-02-14T23:15:11;5.07;;;2.53;;
16624;SDS011;8426;48.496;9.098;2024-02-14T23:20:16;2.63;;;1.30;;
16624;SDS011;8426;48.496;9.098;2024-02-14T23:25:26;2.20;;;1.42;;
16624;SDS011;8426;48.496;9.098;2024-02-14T23:30:32;2.78;;;1.45;;
16624;SDS011;8426;48.496;9.098;2024-02-14T23:35:37;2.03;;;1.40;;
16624;SDS011;8426;48.496;9.098;2024-02-14T23:40:54;1.50;;;1.05;;
16624;SDS011;8426;48.496;9.098;2024-02-14T23:46:00;2.88;;;1.30;;
16624;SDS011;8426;48.496;9.098;2024-02-14T23:51:15;1.90;;;1.17;;
16624;SDS011;8426;48.496;9.098;2024-02-14T23:56:32;1.88;;;1.10;;
